createdAt,value
2023-02-03T00:05:00.627Z,91.59
2023-02-03T00:10:06.406Z,91.35
2023-02-03T00:15:11.950Z,91.53
2023-02-03T00:20:16.227Z,91.58
2023-02-03T00:25:21.946Z,91.64
2023-02-03T00:30:25.711Z,92.04
2023-02-03T00:35:30.281Z,92.04
2023-02-03T00:40:35.653Z,92.37
2023-02-03T00:45:40.553Z,92.31
2023-02-03T00:50:47.718Z,92.72
2023-02-03T00:55:53.004Z,92.56
2023-02-03T01:00:58.204Z,92.75
2023-02-03T01:06:20.456Z,93.09
2023-02-03T01:11:27.573Z,92.76
2023-02-03T01:16:36.315Z,93.10
2023-02-03T01:21:42.042Z,93.31
2023-02-03T01:26:46.804Z,93.38
2023-02-03T01:31:51.656Z,93.28
2023-02-03T01:36:55.744Z,93.37
2023-02-03T01:42:00.088Z,93.63
2023-02-03T01:47:07.250Z,94.01
2023-02-03T01:52:12.297Z,94.23
2023-02-03T01:57:27.225Z,94.41
2023-02-03T02:02:32.547Z,94.64
2023-02-03T02:07:37.697Z,94.67
2023-02-03T02:12:42.890Z,95.27
2023-02-03T02:18:17.051Z,95.33
2023-02-03T02:23:54.228Z,95.41
2023-02-03T02:29:18.744Z,95.60
2023-02-03T02:35:03.906Z,95.59
2023-02-03T02:41:25.666Z,95.67
2023-02-03T02:46:55.026Z,95.67
2023-02-03T02:53:30.301Z,95.88
2023-02-03T02:59:25.750Z,96.03
2023-02-03T03:05:40.758Z,95.74
2023-02-03T03:12:06.037Z,96.05
2023-02-03T03:18:16.668Z,96.16
2023-02-03T03:24:39.941Z,96.24
2023-02-03T03:31:08.628Z,96.62
2023-02-03T03:37:34.799Z,97.03
2023-02-03T03:50:29.814Z,96.96
2023-02-03T03:56:54.297Z,96.97
2023-02-03T04:02:52.091Z,97.08
2023-02-03T04:08:45.436Z,97.02
2023-02-03T04:15:10.898Z,97.26
2023-02-03T04:21:12.662Z,97.23
2023-02-03T04:27:29.296Z,97.44
2023-02-03T04:33:50.875Z,97.69
2023-02-03T04:39:30.489Z,97.69
2023-02-03T04:44:54.456Z,97.51
2023-02-03T04:50:01.702Z,97.71
2023-02-03T04:56:10.319Z,97.43
2023-02-03T05:02:37.449Z,97.33
2023-02-03T05:08:48.537Z,97.66
2023-02-03T05:15:14.444Z,97.85
2023-02-03T05:21:35.368Z,97.47
2023-02-03T05:27:54.824Z,97.35
2023-02-03T05:34:12.705Z,97.43
2023-02-03T05:40:28.675Z,97.61
2023-02-03T05:46:48.297Z,97.82
2023-02-03T05:52:57.937Z,98.34
2023-02-03T05:59:13.694Z,98.56
2023-02-03T06:05:15.362Z,99.03
2023-02-03T06:11:33.674Z,99.13
2023-02-03T06:17:23.650Z,99.59
2023-02-03T06:23:21.185Z,99.68
2023-02-03T06:29:47.097Z,99.97
2023-02-03T06:35:31.859Z,100.00
2023-02-03T06:41:57.425Z,100.00
2023-02-03T06:48:22.970Z,100.00
2023-02-03T06:54:12.736Z,100.00
2023-02-03T07:00:37.923Z,100.00
2023-02-03T07:06:44.052Z,100.00
2023-02-03T07:13:09.876Z,100.00
2023-02-03T07:19:28.589Z,100.00
2023-02-03T07:25:56.104Z,100.00
2023-02-03T07:32:20.792Z,100.00
2023-02-03T07:38:36.575Z,100.00
2023-02-03T07:45:02.198Z,100.00
2023-02-03T07:51:08.241Z,100.00
2023-02-03T07:57:34.320Z,100.00
2023-02-03T08:04:00.129Z,100.00
2023-02-03T08:10:26.324Z,100.00
2023-02-03T08:16:51.319Z,100.00
2023-02-03T08:22:57.633Z,100.00
2023-02-03T08:28:57.835Z,100.00
2023-02-03T08:34:45.482Z,100.00
2023-02-03T08:40:06.185Z,100.00
2023-02-03T08:45:12.454Z,100.00
2023-02-03T08:50:26.675Z,100.00
2023-02-03T08:55:35.009Z,100.00
2023-02-03T09:00:39.845Z,100.00
2023-02-03T09:06:48.415Z,100.00
2023-02-03T09:13:14.209Z,100.00
2023-02-03T09:19:26.795Z,100.00
2023-02-03T09:25:51.648Z,100.00
2023-02-03T09:32:18.367Z,100.00
2023-02-03T09:38:43.413Z,100.00
2023-02-03T09:45:10.884Z,100.00
2023-02-03T09:51:41.964Z,100.00
2023-02-03T09:58:08.789Z,100.00
2023-02-03T10:04:40.907Z,100.00
2023-02-03T10:11:11.355Z,100.00
2023-02-03T10:18:30.353Z,100.00
2023-02-03T10:24:30.497Z,100.00
2023-02-03T10:30:55.478Z,100.00
2023-02-03T10:37:24.902Z,100.00
2023-02-03T10:44:09.194Z,100.00
2023-02-03T10:50:39.117Z,100.00
2023-02-03T10:57:10.631Z,100.00
2023-02-03T11:02:36.409Z,100.00
2023-02-03T11:08:22.129Z,100.00
2023-02-03T11:14:17.529Z,100.00
2023-02-03T11:20:32.840Z,100.00
2023-02-03T11:26:59.084Z,100.00
2023-02-03T11:33:24.112Z,100.00
2023-02-03T11:40:08.620Z,100.00
2023-02-03T11:53:56.949Z,100.00
2023-02-03T12:00:24.251Z,100.00
2023-02-03T12:07:05.692Z,100.00
2023-02-03T12:20:27.491Z,100.00
2023-02-03T12:32:37.511Z,100.00
2023-02-03T12:56:06.319Z,100.00
2023-02-03T13:01:21.430Z,100.00
2023-02-03T13:06:46.578Z,100.00
2023-02-03T13:11:54.913Z,100.00
2023-02-03T13:17:04.343Z,100.00
2023-02-03T13:22:13.474Z,100.00
2023-02-03T13:28:01.926Z,100.00
2023-02-03T13:33:08.500Z,100.00
2023-02-03T13:38:58.365Z,100.00
2023-02-03T13:44:01.174Z,100.00
2023-02-03T13:49:05.607Z,100.00
2023-02-03T13:54:16.137Z,100.00
2023-02-03T13:59:38.507Z,100.00
2023-02-03T14:04:48.080Z,100.00
2023-02-03T14:10:33.644Z,100.00
2023-02-03T14:15:39.900Z,100.00
2023-02-03T14:20:49.591Z,100.00
2023-02-03T14:25:56.712Z,100.00
2023-02-03T14:31:18.507Z,100.00
2023-02-03T14:36:53.500Z,100.00
2023-02-03T14:42:10.723Z,100.00
2023-02-03T14:47:28.471Z,100.00
2023-02-03T14:53:01.171Z,100.00
2023-02-03T14:58:18.201Z,100.00
2023-02-03T15:03:25.762Z,100.00
2023-02-03T15:08:53.397Z,100.00
2023-02-03T15:14:19.616Z,100.00
2023-02-03T15:19:28.529Z,100.00
2023-02-03T15:24:37.490Z,100.00
2023-02-03T15:29:41.372Z,100.00
2023-02-03T15:34:51.853Z,100.00
2023-02-03T15:40:21.228Z,100.00
2023-02-03T15:45:52.379Z,100.00
2023-02-03T15:51:06.919Z,100.00
2023-02-03T15:56:20.793Z,100.00
2023-02-03T16:01:29.266Z,100.00
2023-02-03T16:06:48.558Z,100.00
2023-02-03T16:12:17.681Z,100.00
2023-02-03T16:17:45.527Z,100.00
2023-02-03T16:23:20.901Z,100.00
2023-02-03T16:28:43.641Z,100.00
2023-02-03T16:34:12.236Z,100.00
2023-02-03T16:39:35.854Z,100.00
2023-02-03T16:45:03.535Z,100.00
2023-02-03T16:50:38.634Z,100.00
2023-02-03T16:55:48.792Z,100.00
2023-02-03T17:00:57.289Z,100.00
2023-02-03T17:06:10.573Z,100.00
2023-02-03T17:11:22.516Z,100.00
2023-02-03T17:16:28.672Z,100.00
2023-02-03T17:21:37.174Z,100.00
2023-02-03T17:26:46.092Z,100.00
2023-02-03T17:31:51.349Z,100.00
2023-02-03T17:36:59.455Z,100.00
2023-02-03T17:58:10.522Z,100.00
2023-02-03T18:03:18.014Z,100.00
2023-02-03T18:08:25.330Z,100.00
2023-02-03T18:13:41.493Z,100.00
2023-02-03T18:18:49.230Z,100.00
2023-02-03T18:24:00.844Z,100.00
2023-02-03T18:29:07.775Z,100.00
2023-02-03T18:34:13.832Z,100.00
2023-02-03T18:39:18.666Z,100.00
2023-02-03T18:44:26.770Z,100.00
2023-02-03T18:49:34.182Z,100.00
2023-02-03T18:54:47.517Z,100.00
2023-02-03T19:00:04.871Z,100.00
2023-02-03T19:05:13.089Z,100.00
2023-02-03T19:10:23.347Z,100.00
2023-02-03T19:15:29.954Z,100.00
2023-02-03T19:20:37.894Z,100.00
2023-02-03T19:25:46.808Z,100.00
2023-02-03T19:31:02.840Z,100.00
2023-02-03T19:36:14.559Z,100.00
2023-02-03T19:41:22.908Z,100.00
2023-02-03T19:46:34.050Z,100.00
2023-02-03T19:51:49.608Z,100.00
2023-02-03T19:56:58.835Z,100.00
2023-02-03T20:02:13.678Z,100.00
2023-02-03T20:07:19.094Z,100.00
2023-02-03T20:12:24.715Z,100.00
2023-02-03T20:17:34.328Z,100.00
2023-02-03T20:22:41.519Z,100.00
2023-02-03T20:27:49.171Z,100.00
2023-02-03T20:32:58.397Z,100.00
2023-02-03T20:38:07.226Z,100.00
2023-02-03T20:43:27.403Z,100.00
2023-02-03T20:48:35.360Z,100.00
2023-02-03T20:53:45.449Z,100.00
2023-02-03T20:58:53.329Z,100.00
2023-02-03T21:04:16.839Z,100.00
2023-02-03T21:09:26.284Z,100.00
2023-02-03T21:14:43.780Z,100.00
2023-02-03T21:19:52.938Z,100.00
2023-02-03T21:25:00.940Z,100.00
2023-02-03T21:30:34.046Z,100.00
2023-02-03T21:35:50.581Z,100.00
2023-02-03T21:40:57.070Z,100.00
2023-02-03T21:46:06.344Z,100.00
2023-02-03T21:51:47.453Z,100.00
2023-02-03T21:56:55.026Z,100.00
2023-02-03T22:01:59.921Z,100.00
2023-02-03T22:07:16.011Z,100.00
2023-02-03T22:12:20.655Z,100.00
2023-02-03T22:17:24.409Z,100.00
2023-02-03T22:22:31.338Z,100.00
2023-02-03T22:27:35.237Z,100.00
2023-02-03T22:32:44.702Z,100.00
2023-02-03T22:37:48.527Z,100.00
2023-02-03T22:42:53.688Z,100.00
2023-02-03T22:48:07.412Z,100.00
2023-02-03T22:53:20.752Z,100.00
2023-02-03T22:58:36.203Z,100.00
2023-02-03T23:03:50.157Z,100.00
2023-02-03T23:09:00.822Z,100.00
2023-02-03T23:14:05.527Z,100.00
2023-02-03T23:19:12.575Z,100.00
2023-02-03T23:24:23.439Z,100.00
2023-02-03T23:29:27.696Z,100.00
2023-02-03T23:34:50.997Z,100.00
2023-02-03T23:39:54.976Z,100.00
2023-02-03T23:45:00.400Z,100.00
2023-02-03T23:50:04.509Z,100.00
2023-02-03T23:55:14.006Z,100.00
